createdAt,value
2018-03-04T00:00:41.258Z,50.83
2018-03-04T00:03:08.756Z,51.90
2018-03-04T00:05:36.216Z,48.22
2018-03-04T00:08:03.744Z,49.72
2018-03-04T00:10:31.256Z,50.22
2018-03-04T00:12:58.709Z,46.88
2018-03-04T00:15:26.190Z,49.40
2018-03-04T00:17:53.643Z,49.15
2018-03-04T00:20:21.884Z,49.13
2018-03-04T00:22:49.372Z,49.90
2018-03-04T00:25:16.906Z,48.63
2018-03-04T00:27:44.469Z,49.63
2018-03-04T00:30:11.914Z,51.10
2018-03-04T00:32:39.372Z,48.58
2018-03-04T00:35:06.977Z,49.42
2018-03-04T00:37:34.489Z,51.20
2018-03-04T00:40:01.944Z,49.33
2018-03-04T00:42:29.400Z,52.03
2018-03-04T00:44:57.884Z,50.50
2018-03-04T00:47:25.363Z,51.42
2018-03-04T00:49:52.814Z,50.05
2018-03-04T00:52:20.272Z,52.00
2018-03-04T00:54:47.739Z,51.50
2018-03-04T00:57:15.295Z,52.88
2018-03-04T00:59:42.779Z,51.08
2018-03-04T01:02:10.960Z,53.90
2018-03-04T01:04:38.547Z,52.00
2018-03-04T01:07:06.040Z,53.80
2018-03-04T01:09:33.491Z,51.58
2018-03-04T01:12:00.954Z,55.20
2018-03-04T01:14:28.401Z,52.40
2018-03-04T01:16:56.087Z,54.20
2018-03-04T01:19:23.538Z,53.42
2018-03-04T01:21:51.042Z,50.70
2018-03-04T01:24:18.485Z,56.25
2018-03-04T01:26:46.715Z,50.08
2018-03-04T01:29:14.165Z,52.42
2018-03-04T01:31:41.712Z,50.20
2018-03-04T01:34:09.976Z,56.88
2018-03-04T01:36:37.452Z,52.70
2018-03-04T01:39:05.678Z,55.53
2018-03-04T01:41:33.117Z,56.58
2018-03-04T01:44:00.575Z,51.78
2018-03-04T01:46:28.023Z,53.00
2018-03-04T01:48:55.514Z,54.10
2018-03-04T01:51:28.712Z,53.00
2018-03-04T01:53:56.235Z,52.15
2018-03-04T01:56:23.686Z,54.80
2018-03-04T01:58:51.146Z,57.70
2018-03-04T02:01:18.672Z,58.05
2018-03-04T02:03:46.125Z,53.17
2018-03-04T02:06:13.632Z,56.10
2018-03-04T02:08:41.077Z,54.15
2018-03-04T02:11:08.536Z,53.00
2018-03-04T02:13:35.984Z,56.80
2018-03-04T02:16:03.530Z,51.58
2018-03-04T02:18:30.962Z,53.87
2018-03-04T02:20:58.445Z,52.30
2018-03-04T02:23:25.923Z,54.72
2018-03-04T02:25:53.406Z,54.70
2018-03-04T02:28:20.927Z,54.75
2018-03-04T02:30:48.392Z,54.05
2018-03-04T02:33:15.968Z,52.92
2018-03-04T02:35:43.415Z,54.65
2018-03-04T02:38:11.007Z,53.30
2018-03-04T02:40:38.468Z,50.60
2018-03-04T02:43:06.702Z,56.35
2018-03-04T02:45:34.145Z,52.80
2018-03-04T02:48:01.599Z,53.87
2018-03-04T02:50:29.041Z,54.25
2018-03-04T02:52:56.494Z,52.45
2018-03-04T02:55:23.968Z,52.90
2018-03-04T02:57:51.420Z,56.10
2018-03-04T03:00:18.877Z,52.13
2018-03-04T03:02:46.312Z,55.58
2018-03-04T03:05:13.779Z,55.40
2018-03-04T03:07:41.268Z,51.13
2018-03-04T03:10:08.753Z,54.88
2018-03-04T03:12:36.980Z,55.63
2018-03-04T03:15:04.612Z,51.58
2018-03-04T03:17:32.042Z,54.97
2018-03-04T03:19:59.546Z,57.60
2018-03-04T03:22:27.019Z,56.03
2018-03-04T03:24:54.492Z,55.30
2018-03-04T03:27:21.955Z,56.37
2018-03-04T03:29:49.488Z,50.75
2018-03-04T03:32:16.961Z,54.40
2018-03-04T03:34:44.439Z,54.42
2018-03-04T03:37:12.707Z,56.33
2018-03-04T03:39:40.922Z,53.13
2018-03-04T03:42:08.421Z,54.47
2018-03-04T03:44:35.858Z,51.92
2018-03-04T03:47:03.364Z,53.90
2018-03-04T03:49:31.572Z,54.60
2018-03-04T03:51:59.081Z,53.83
2018-03-04T03:54:27.294Z,55.25
2018-03-04T03:56:54.778Z,57.50
2018-03-04T03:59:22.242Z,54.35
2018-03-04T04:01:49.720Z,50.90
2018-03-04T04:04:17.941Z,52.17
2018-03-04T04:06:45.404Z,55.95
2018-03-04T04:09:13.653Z,53.85
2018-03-04T04:11:41.131Z,55.28
2018-03-04T04:14:08.592Z,57.28
2018-03-04T04:16:36.051Z,54.72
2018-03-04T04:19:03.539Z,58.50
2018-03-04T04:21:31.055Z,52.65
2018-03-04T04:23:58.548Z,54.55
2018-03-04T04:26:25.974Z,56.33
2018-03-04T04:28:53.474Z,56.63
2018-03-04T04:31:21.050Z,52.83
2018-03-04T04:33:49.319Z,59.35
2018-03-04T04:36:17.566Z,51.05
2018-03-04T04:38:45.041Z,57.30
2018-03-04T04:41:12.501Z,55.20
2018-03-04T04:43:39.964Z,59.00
2018-03-04T04:46:08.202Z,53.75
2018-03-04T04:48:35.642Z,54.30
2018-03-04T04:51:03.122Z,53.87
2018-03-04T04:53:30.570Z,50.97
2018-03-04T04:55:58.043Z,54.30
2018-03-04T04:58:25.500Z,56.78
2018-03-04T05:00:52.959Z,57.67
2018-03-04T05:03:20.512Z,54.38
2018-03-04T05:05:47.985Z,56.20
2018-03-04T05:08:16.239Z,52.28
2018-03-04T05:10:45.607Z,56.53
2018-03-04T05:13:13.731Z,56.08
2018-03-04T05:15:43.028Z,58.83
2018-03-04T05:18:10.494Z,58.83
2018-03-04T05:20:38.662Z,52.58
2018-03-04T05:23:06.109Z,53.03
2018-03-04T05:25:34.335Z,54.58
2018-03-04T05:28:01.807Z,53.20
2018-03-04T05:30:29.277Z,53.22
2018-03-04T05:32:56.738Z,53.67
2018-03-04T05:35:24.193Z,56.67
2018-03-04T05:37:51.662Z,53.75
2018-03-04T05:40:19.137Z,55.55
2018-03-04T05:42:46.603Z,54.88
2018-03-04T05:45:14.119Z,54.58
2018-03-04T05:47:41.595Z,51.63
2018-03-04T05:50:09.796Z,54.83
2018-03-04T05:52:37.255Z,53.97
2018-03-04T05:55:04.792Z,53.58
2018-03-04T05:57:33.076Z,54.20
2018-03-04T06:00:00.559Z,53.80
2018-03-04T06:02:27.999Z,54.20
2018-03-04T06:04:55.459Z,56.15
2018-03-04T06:07:22.921Z,53.85
2018-03-04T06:09:50.372Z,52.88
2018-03-04T06:12:17.876Z,53.50
2018-03-04T06:14:45.300Z,56.42
2018-03-04T06:17:14.261Z,55.35
2018-03-04T06:19:41.718Z,56.63
2018-03-04T06:22:10.984Z,55.40
2018-03-04T06:24:38.486Z,53.65
2018-03-04T06:27:06.465Z,53.45
2018-03-04T06:29:33.924Z,54.20
2018-03-04T06:32:01.359Z,55.97
2018-03-04T06:34:28.974Z,52.20
2018-03-04T06:36:56.430Z,51.95
2018-03-04T06:39:23.886Z,53.63
2018-03-04T06:41:51.354Z,54.28
2018-03-04T06:44:19.869Z,53.20
2018-03-04T06:46:47.324Z,53.55
2018-03-04T06:49:14.772Z,54.08
2018-03-04T06:51:42.229Z,53.70
2018-03-04T06:54:09.696Z,55.58
2018-03-04T06:56:37.366Z,54.17
2018-03-04T06:59:04.848Z,52.47
2018-03-04T07:01:32.342Z,56.92
2018-03-04T07:03:59.985Z,51.65
2018-03-04T07:06:27.538Z,56.63
2018-03-04T07:08:55.008Z,53.78
2018-03-04T07:11:22.465Z,53.42
2018-03-04T07:13:49.945Z,51.42
2018-03-04T07:16:17.421Z,56.78
2018-03-04T07:18:44.899Z,55.28
2018-03-04T07:21:12.349Z,52.05
2018-03-04T07:23:39.799Z,54.53
2018-03-04T07:26:07.259Z,52.33
2018-03-04T07:28:34.774Z,54.53
2018-03-04T07:31:02.228Z,55.85
2018-03-04T07:33:30.456Z,55.17
2018-03-04T07:35:57.938Z,54.20
2018-03-04T07:38:26.800Z,50.67
2018-03-04T07:40:54.279Z,55.65
2018-03-04T07:43:22.462Z,53.15
2018-03-04T07:45:50.715Z,50.90
2018-03-04T07:48:22.395Z,53.65
2018-03-04T07:50:51.147Z,52.60
2018-03-04T07:53:18.633Z,50.38
2018-03-04T07:55:46.681Z,53.53
2018-03-04T07:58:14.681Z,53.05
2018-03-04T08:00:42.382Z,53.60
2018-03-04T08:03:09.804Z,51.55
2018-03-04T08:05:37.281Z,54.80
2018-03-04T08:08:04.834Z,56.45
2018-03-04T08:10:33.149Z,52.50
2018-03-04T08:13:00.692Z,55.78
2018-03-04T08:15:28.141Z,54.05
2018-03-04T08:17:55.595Z,52.53
2018-03-04T08:20:23.924Z,51.47
2018-03-04T08:22:52.329Z,52.13
2018-03-04T08:25:32.089Z,55.67
2018-03-04T08:28:13.421Z,53.65
2018-03-04T08:30:42.217Z,53.42
2018-03-04T08:33:10.964Z,51.72
2018-03-04T08:35:38.418Z,52.33
2018-03-04T08:38:05.882Z,54.28
2018-03-04T08:40:33.522Z,52.65
2018-03-04T08:43:02.765Z,53.75
2018-03-04T08:45:30.218Z,54.50
2018-03-04T08:47:58.470Z,54.33
2018-03-04T08:50:25.966Z,54.25
2018-03-04T08:52:54.181Z,57.95
2018-03-04T08:55:21.735Z,52.45
2018-03-04T08:57:49.215Z,53.15
2018-03-04T09:00:16.665Z,56.50
2018-03-04T09:02:44.159Z,53.15
2018-03-04T09:05:11.629Z,58.47
2018-03-04T09:07:39.860Z,56.78
2018-03-04T09:10:07.290Z,54.05
2018-03-04T09:12:36.048Z,56.78
2018-03-04T09:15:04.280Z,58.15
2018-03-04T09:17:32.420Z,61.97
2018-03-04T09:20:04.394Z,58.85
2018-03-04T09:22:31.854Z,54.28
2018-03-04T09:25:00.831Z,56.67
2018-03-04T09:27:29.605Z,52.65
2018-03-04T09:29:57.084Z,56.13
2018-03-04T09:32:25.446Z,54.33
2018-03-04T09:34:52.983Z,53.58
2018-03-04T09:37:21.198Z,54.40
2018-03-04T09:39:49.441Z,52.97
2018-03-04T09:42:16.937Z,56.10
2018-03-04T09:44:44.419Z,54.47
2018-03-04T09:47:11.934Z,56.42
2018-03-04T09:49:39.439Z,56.50
2018-03-04T09:52:06.874Z,53.13
2018-03-04T09:54:34.805Z,59.33
2018-03-04T09:57:02.247Z,55.60
2018-03-04T09:59:29.731Z,55.28
2018-03-04T10:01:57.243Z,54.75
2018-03-04T10:04:25.479Z,53.33
2018-03-04T10:06:53.385Z,56.05
2018-03-04T10:09:20.865Z,54.85
2018-03-04T10:11:48.337Z,57.55
2018-03-04T10:14:15.771Z,56.92
2018-03-04T10:16:43.354Z,52.30
2018-03-04T10:19:10.869Z,55.30
2018-03-04T10:21:39.156Z,52.77
2018-03-04T10:24:06.613Z,54.63
2018-03-04T10:26:34.823Z,53.03
2018-03-04T10:29:02.999Z,50.90
2018-03-04T10:31:31.136Z,54.27
2018-03-04T10:33:58.589Z,55.47
2018-03-04T10:36:26.028Z,55.00
2018-03-04T10:38:54.287Z,55.23
2018-03-04T10:41:22.619Z,56.23
2018-03-04T10:43:50.099Z,54.13
2018-03-04T10:46:17.546Z,53.40
2018-03-04T10:48:45.015Z,52.33
2018-03-04T10:51:12.486Z,49.13
2018-03-04T10:53:39.953Z,52.03
2018-03-04T10:56:08.223Z,50.50
2018-03-04T10:58:35.712Z,51.50
2018-03-04T11:01:08.904Z,48.93
2018-03-04T11:03:36.410Z,47.50
2018-03-04T11:06:04.012Z,49.03
2018-03-04T11:08:32.286Z,50.90
2018-03-04T11:10:59.770Z,52.40
2018-03-04T11:13:27.333Z,50.63
2018-03-04T11:15:54.801Z,50.43
2018-03-04T11:18:24.293Z,50.07
2018-03-04T11:20:51.759Z,49.33
2018-03-04T11:23:20.012Z,68.57
2018-03-04T11:25:47.465Z,50.70
2018-03-04T11:28:14.936Z,48.77
2018-03-04T11:30:42.412Z,49.40
2018-03-04T11:33:09.876Z,52.70
2018-03-04T11:35:37.452Z,49.70
2018-03-04T11:38:05.678Z,49.00
2018-03-04T11:40:34.635Z,50.37
2018-03-04T11:43:02.871Z,51.37
2018-03-04T11:45:34.759Z,50.20
2018-03-04T11:48:02.963Z,51.50
2018-03-04T11:50:30.427Z,50.40
2018-03-04T11:52:57.879Z,51.47
2018-03-04T11:55:25.360Z,48.90
2018-03-04T11:57:52.897Z,53.37
2018-03-04T12:00:20.388Z,52.17
2018-03-04T12:02:47.913Z,50.93
2018-03-04T12:05:15.387Z,47.53
2018-03-04T12:07:42.853Z,50.60
2018-03-04T12:10:10.308Z,51.10
2018-03-04T12:12:37.823Z,50.83
2018-03-04T12:15:06.049Z,51.33
2018-03-04T12:17:33.549Z,49.23
2018-03-04T12:20:01.064Z,53.13
2018-03-04T12:22:28.516Z,54.53
2018-03-04T12:24:56.036Z,49.53
2018-03-04T12:27:23.486Z,49.27
2018-03-04T12:29:51.070Z,49.30
2018-03-04T12:32:18.496Z,49.67
2018-03-04T12:34:46.951Z,46.93
2018-03-04T12:37:14.404Z,47.00
2018-03-04T12:39:42.737Z,48.67
2018-03-04T12:42:10.333Z,53.00
2018-03-04T12:44:37.848Z,48.33
2018-03-04T12:47:05.597Z,48.83
2018-03-04T12:49:34.046Z,47.80
2018-03-04T12:52:02.384Z,45.90
2018-03-04T12:54:30.855Z,45.83
2018-03-04T12:56:59.428Z,46.50
2018-03-04T12:59:29.073Z,46.40
2018-03-04T13:01:56.545Z,44.57
2018-03-04T13:04:24.766Z,39.20
2018-03-04T13:06:52.279Z,37.50
2018-03-04T13:09:24.121Z,25.30
2018-03-04T13:11:55.733Z,24.90
2018-03-04T13:14:23.209Z,23.60
2018-03-04T13:16:51.735Z,24.07
2018-03-04T13:19:21.102Z,23.77
2018-03-04T13:21:48.601Z,18.30
2018-03-04T13:24:16.048Z,18.40
2018-03-04T13:26:44.574Z,19.10
2018-03-04T13:29:12.122Z,19.17
2018-03-04T13:31:39.787Z,20.53
2018-03-04T13:34:07.219Z,21.57
2018-03-04T13:36:34.671Z,19.67
2018-03-04T13:39:03.064Z,21.30
2018-03-04T13:41:30.778Z,21.30
2018-03-04T13:43:58.239Z,23.23
2018-03-04T13:46:26.507Z,20.70
2018-03-04T13:48:55.774Z,21.77
2018-03-04T13:51:23.693Z,22.90
2018-03-04T13:53:51.352Z,25.13
2018-03-04T13:56:18.827Z,24.57
2018-03-04T13:58:47.060Z,25.17
2018-03-04T14:01:14.525Z,24.80
2018-03-04T14:03:42.660Z,27.70
2018-03-04T14:06:10.245Z,27.70
2018-03-04T14:08:37.720Z,27.87
2018-03-04T14:11:05.264Z,27.50
2018-03-04T14:13:32.744Z,28.50
2018-03-04T14:16:00.952Z,28.77
2018-03-04T14:18:28.427Z,28.37
2018-03-04T14:20:55.871Z,29.43
2018-03-04T14:23:23.365Z,28.63
2018-03-04T14:25:50.823Z,30.10
2018-03-04T14:28:18.303Z,28.60
2018-03-04T14:30:45.780Z,31.20
2018-03-04T14:33:13.775Z,29.60
2018-03-04T14:35:41.244Z,29.63
2018-03-04T14:38:08.713Z,30.37
2018-03-04T14:40:36.193Z,28.97
2018-03-04T14:43:04.425Z,30.00
2018-03-04T14:45:31.876Z,31.80
2018-03-04T14:48:00.134Z,33.47
2018-03-04T14:50:27.597Z,30.00
2018-03-04T14:52:55.046Z,31.40
2018-03-04T14:55:22.514Z,32.93
2018-03-04T14:57:49.977Z,32.90
2018-03-04T15:00:17.563Z,33.33
2018-03-04T15:02:44.999Z,30.20
2018-03-04T15:05:12.501Z,31.80
2018-03-04T15:07:40.740Z,30.93
2018-03-04T15:10:08.264Z,33.63
2018-03-04T15:12:35.886Z,31.60
2018-03-04T15:15:03.292Z,33.43
2018-03-04T15:17:30.741Z,34.23
2018-03-04T15:19:58.227Z,34.40
2018-03-04T15:22:26.482Z,36.17
2018-03-04T15:24:54.485Z,35.47
2018-03-04T15:27:22.007Z,35.47
2018-03-04T15:29:49.499Z,36.50
2018-03-04T15:32:17.764Z,34.90
2018-03-04T15:34:45.245Z,36.13
2018-03-04T15:37:13.462Z,35.93
2018-03-04T15:39:40.942Z,38.17
2018-03-04T15:42:08.448Z,43.53
2018-03-04T15:44:39.042Z,38.07
2018-03-04T15:47:06.693Z,36.00
2018-03-04T15:49:45.303Z,36.30
2018-03-04T15:52:12.768Z,39.83
2018-03-04T15:54:40.278Z,41.10
2018-03-04T15:57:07.737Z,40.47
2018-03-04T15:59:35.223Z,37.00
2018-03-04T16:02:02.677Z,37.73
2018-03-04T16:04:30.146Z,36.83
2018-03-04T16:06:57.606Z,41.07
2018-03-04T16:09:25.093Z,36.72
2018-03-04T16:11:52.590Z,38.97
2018-03-04T16:14:20.074Z,39.03
2018-03-04T16:16:47.575Z,40.80
2018-03-04T16:19:15.060Z,38.17
2018-03-04T16:21:42.551Z,37.67
2018-03-04T16:24:09.985Z,37.50
2018-03-04T16:26:37.447Z,36.90
2018-03-04T16:29:04.904Z,37.78
2018-03-04T16:31:32.371Z,37.47
2018-03-04T16:34:00.711Z,36.80
2018-03-04T16:36:28.150Z,37.78
2018-03-04T16:38:55.729Z,37.38
2018-03-04T16:41:23.970Z,37.58
2018-03-04T16:43:51.497Z,36.55
2018-03-04T16:46:19.469Z,37.10
2018-03-04T16:48:47.073Z,38.28
2018-03-04T16:51:15.307Z,38.42
2018-03-04T16:53:43.409Z,39.22
2018-03-04T16:56:10.874Z,40.40
2018-03-04T16:58:38.357Z,39.30
2018-03-04T17:01:05.911Z,39.08
2018-03-04T17:03:33.411Z,40.22
2018-03-04T17:06:00.868Z,38.20
2018-03-04T17:08:28.320Z,39.42
2018-03-04T17:10:55.810Z,40.53
2018-03-04T17:13:23.342Z,38.28
2018-03-04T17:15:50.790Z,36.33
2018-03-04T17:18:18.267Z,37.55
2018-03-04T17:20:45.764Z,38.42
2018-03-04T17:23:13.188Z,34.80
2018-03-04T17:25:40.688Z,36.58
2018-03-04T17:28:08.160Z,35.83
2018-03-04T17:30:35.639Z,35.47
2018-03-04T17:33:03.099Z,33.30
2018-03-04T17:35:30.638Z,35.35
2018-03-04T17:37:59.697Z,35.15
2018-03-04T17:40:27.528Z,32.78
2018-03-04T17:42:54.979Z,33.63
2018-03-04T17:45:22.456Z,32.50
2018-03-04T17:47:49.933Z,31.73
2018-03-04T17:50:18.262Z,33.67
2018-03-04T17:52:45.739Z,34.75
2018-03-04T17:55:13.953Z,30.85
2018-03-04T17:57:41.498Z,33.28
2018-03-04T18:00:13.690Z,34.17
2018-03-04T18:02:45.157Z,32.75
2018-03-04T18:05:15.147Z,33.33
2018-03-04T18:07:42.646Z,32.25
2018-03-04T18:10:14.707Z,32.80
2018-03-04T18:12:42.466Z,32.85
2018-03-04T18:15:10.689Z,32.17
2018-03-04T18:17:38.203Z,32.33
2018-03-04T18:20:05.659Z,30.02
2018-03-04T18:22:36.716Z,31.80
2018-03-04T18:25:06.564Z,31.15
2018-03-04T18:27:34.812Z,30.75
2018-03-04T18:30:03.074Z,33.38
2018-03-04T18:32:31.076Z,30.98
2018-03-04T18:34:59.716Z,30.92
2018-03-04T18:37:27.372Z,31.50
2018-03-04T18:39:59.342Z,30.88
2018-03-04T18:42:26.834Z,29.00
2018-03-04T18:44:54.315Z,30.17
2018-03-04T18:47:21.788Z,27.77
2018-03-04T18:49:50.051Z,29.50
2018-03-04T18:52:17.516Z,31.08
2018-03-04T18:54:45.757Z,30.58
2018-03-04T18:57:13.975Z,30.50
2018-03-04T18:59:42.241Z,28.77
2018-03-04T19:02:10.451Z,26.92
2018-03-04T19:04:38.029Z,26.98
2018-03-04T19:07:05.602Z,27.77
2018-03-04T19:09:33.094Z,25.12
2018-03-04T19:12:01.341Z,25.80
2018-03-04T19:14:28.822Z,25.27
2018-03-04T19:16:57.186Z,26.25
2018-03-04T19:19:24.656Z,22.02
2018-03-04T19:21:53.076Z,23.15
2018-03-04T19:24:20.523Z,22.50
2018-03-04T19:26:51.260Z,21.73
2018-03-04T19:29:18.824Z,23.10
2018-03-04T19:31:46.433Z,19.52
2018-03-04T19:34:13.880Z,23.00
2018-03-04T19:36:41.355Z,21.23
2018-03-04T19:39:10.432Z,20.80
2018-03-04T19:41:44.459Z,20.23
2018-03-04T19:44:12.467Z,18.73
2018-03-04T19:46:42.381Z,19.98
2018-03-04T19:49:10.678Z,19.42
2018-03-04T19:51:38.517Z,19.85
2018-03-04T19:54:06.004Z,19.35
2018-03-04T19:56:33.557Z,19.90
2018-03-04T19:59:01.952Z,19.02
2018-03-04T20:01:29.441Z,18.60
2018-03-04T20:03:56.909Z,18.23
2018-03-04T20:06:24.387Z,20.42
2018-03-04T20:08:56.725Z,18.37
2018-03-04T20:11:24.196Z,19.25
2018-03-04T20:13:53.172Z,20.25
2018-03-04T20:16:24.578Z,16.85
2018-03-04T20:18:56.493Z,18.98
2018-03-04T20:21:23.958Z,19.60
2018-03-04T20:23:51.555Z,19.12
2018-03-04T20:26:19.077Z,20.45
2018-03-04T20:28:47.548Z,19.00
2018-03-04T20:31:15.040Z,17.87
2018-03-04T20:33:43.952Z,18.73
2018-03-04T20:36:11.481Z,18.08
2018-03-04T20:38:38.970Z,20.37
2018-03-04T20:41:06.517Z,20.45
2018-03-04T20:43:34.045Z,20.05
2018-03-04T20:46:01.541Z,20.12
2018-03-04T20:48:29.006Z,22.00
2018-03-04T20:50:57.255Z,20.25
2018-03-04T20:53:24.737Z,19.48
2018-03-04T20:55:52.422Z,18.95
2018-03-04T20:58:19.905Z,20.05
2018-03-04T21:00:47.365Z,20.33
2018-03-04T21:03:15.131Z,20.25
2018-03-04T21:05:42.633Z,18.52
2018-03-04T21:08:10.881Z,19.58
2018-03-04T21:10:38.353Z,21.70
2018-03-04T21:13:07.312Z,19.85
2018-03-04T21:15:34.814Z,21.27
2018-03-04T21:18:02.343Z,20.65
2018-03-04T21:20:33.879Z,20.35
2018-03-04T21:23:01.462Z,21.12
2018-03-04T21:25:30.225Z,20.62
2018-03-04T21:27:57.726Z,21.05
2018-03-04T21:30:25.961Z,20.25
2018-03-04T21:32:53.430Z,19.70
2018-03-04T21:35:21.637Z,19.37
2018-03-04T21:37:49.891Z,20.60
2018-03-04T21:40:17.366Z,21.48
2018-03-04T21:42:45.617Z,20.60
2018-03-04T21:45:13.069Z,21.52
2018-03-04T21:47:40.556Z,22.58
2018-03-04T21:50:08.632Z,21.02
2018-03-04T21:52:36.112Z,20.02
2018-03-04T21:55:03.593Z,21.00
2018-03-04T21:57:31.548Z,20.90
2018-03-04T21:59:59.330Z,21.37
2018-03-04T22:02:26.790Z,20.15
2018-03-04T22:04:54.273Z,21.02
2018-03-04T22:07:21.737Z,21.90
2018-03-04T22:09:50.873Z,20.62
2018-03-04T22:12:18.331Z,21.20
2018-03-04T22:14:45.824Z,19.45
2018-03-04T22:17:13.317Z,21.00
2018-03-04T22:19:40.781Z,20.48
2018-03-04T22:22:08.222Z,22.48
2018-03-04T22:24:35.703Z,19.70
2018-03-04T22:27:03.160Z,19.65
2018-03-04T22:29:30.644Z,18.87
2018-03-04T22:31:58.091Z,20.05
2018-03-04T22:34:25.600Z,19.00
2018-03-04T22:36:53.780Z,18.55
2018-03-04T22:39:21.292Z,19.17
2018-03-04T22:41:48.825Z,19.50
2018-03-04T22:44:16.381Z,19.90
2018-03-04T22:46:43.836Z,19.90
2018-03-04T22:49:11.335Z,19.08
2018-03-04T22:51:38.791Z,19.52
2018-03-04T22:54:06.289Z,18.65
2018-03-04T22:56:33.758Z,20.50
2018-03-04T22:59:01.237Z,19.25
2018-03-04T23:01:28.725Z,18.50
2018-03-04T23:03:56.191Z,19.83
2018-03-04T23:06:23.627Z,19.02
2018-03-04T23:08:51.104Z,19.23
2018-03-04T23:11:19.324Z,19.30
2018-03-04T23:13:46.876Z,20.27
2018-03-04T23:16:14.328Z,21.30
2018-03-04T23:18:56.647Z,21.37
2018-03-04T23:21:24.127Z,20.70
2018-03-04T23:23:51.570Z,20.00
2018-03-04T23:26:19.033Z,21.30
2018-03-04T23:28:46.482Z,20.65
2018-03-04T23:31:13.945Z,20.60
2018-03-04T23:33:41.537Z,19.60
2018-03-04T23:36:09.811Z,21.45
2018-03-04T23:38:38.041Z,21.10
2018-03-04T23:41:05.517Z,19.75
2018-03-04T23:43:32.959Z,19.60
2018-03-04T23:46:01.140Z,19.35
2018-03-04T23:48:28.693Z,18.48
2018-03-04T23:50:56.130Z,18.02
2018-03-04T23:53:23.617Z,16.42
2018-03-04T23:55:51.087Z,16.02
2018-03-04T23:58:18.536Z,16.40
